Terminal Aerodrome Forecast
Issued by NWS Topeka, KS

Home | Current Version | Previous Version | Text Only | Print | Product List | Glossary On
Versions: 1 2 3 4 5 6 7 8 9 10 11 12 13 14 15 16 17 18 19 20
175
FTUS43 KTOP 310731 AAB
TAFTOP
TAF AMD
KTOP 310731Z 3108/0106 17005KT P6SM BKN250
     FM310900 18005KT P6SM SCT060
     FM311100 18005KT 6SM BR BKN020
     FM311700 18007KT P6SM VCTS BKN020CB
     FM312300 36006KT P6SM BKN050=

USA.gov is the U.S. government's official web portal to all federal, state and local government web resources and services.